Time;durP1;ratioP1;P1;durP2;ratioP2;P2;SDS_P1;SDS_P2;PMS_P1;PMS_P2;Temp;Humidity;BMP_temperature;BMP_pressure;BME280_temperature;BME280_humidity;BME280_pressure;Samples;Min_cycle;Max_cycle;Signal;HPM_P1;HPM_P2
2021/06/18 00:00:59;;;;;;;7.10;5.72;;;;;;;27.34;47.98;99653.44;5091690;28;20044;-82
2021/06/18 00:03:25;;;;;;;11.60;7.05;;;;;;;27.30;48.21;99644.91;5091647;28;20059;-82
2021/06/18 00:05:52;;;;;;;16.52;7.22;;;;;;;27.28;48.29;99645.13;5091636;28;20054;-82
2021/06/18 00:08:22;;;;;;;10.63;6.55;;;;;;;27.26;48.85;99638.25;5092102;28;20054;-82
2021/06/18 00:10:49;;;;;;;9.52;6.68;;;;;;;27.27;48.57;99639.91;5091470;28;20063;-80
2021/06/18 00:13:22;;;;;;;10.43;6.63;;;;;;;27.25;49.31;99640.09;5092970;28;20059;-80
2021/06/18 00:15:48;;;;;;;11.68;7.20;;;;;;;27.27;48.65;99642.59;5091986;28;20507;-80
2021/06/18 00:18:17;;;;;;;13.98;6.78;;;;;;;27.26;48.58;99644.50;5092835;28;20048;-80
2021/06/18 00:20:43;;;;;;;10.20;7.32;;;;;;;27.24;48.49;99640.34;5091150;28;20040;-80
2021/06/18 00:23:10;;;;;;;9.73;6.68;;;;;;;27.22;48.92;99645.94;5091747;28;20088;-80
2021/06/18 00:25:37;;;;;;;10.57;7.18;;;;;;;27.20;48.77;99653.38;5093255;28;20056;-89
2021/06/18 00:28:05;;;;;;;9.73;7.55;;;;;;;27.16;49.00;99649.41;5092337;28;20060;-88
2021/06/18 00:30:32;;;;;;;9.48;7.63;;;;;;;27.12;49.04;99651.69;5095857;28;20451;-89
2021/06/18 00:32:58;;;;;;;13.63;7.22;;;;;;;27.08;49.01;99650.41;5096367;28;20052;-89
2021/06/18 00:35:38;;;;;;;12.15;7.18;;;;;;;26.98;49.39;99641.84;5098112;28;20139;-88
2021/06/18 00:38:04;;;;;;;16.15;7.03;;;;;;;26.97;49.29;99643.72;5095757;28;20055;-82
2021/06/18 00:40:32;;;;;;;10.85;7.07;;;;;;;26.93;49.53;99645.09;5095630;28;20059;-82
2021/06/18 00:42:59;;;;;;;8.82;6.65;;;;;;;26.89;49.50;99633.88;5096582;28;20052;-82
2021/06/18 00:45:29;;;;;;;14.73;8.05;;;;;;;26.84;50.02;99636.34;5095207;28;20044;-82
2021/06/18 00:47:59;;;;;;;14.23;7.85;;;;;;;26.79;50.05;99636.06;5096483;28;20051;-82
2021/06/18 00:50:28;;;;;;;11.10;7.63;;;;;;;26.76;50.03;99640.00;5095784;28;20056;-88
2021/06/18 00:52:55;;;;;;;8.93;7.03;;;;;;;26.73;50.01;99639.56;5096090;28;20385;-88
2021/06/18 00:55:46;;;;;;;10.35;7.72;;;;;;;26.65;50.00;99635.16;5095948;28;20051;-88
2021/06/18 00:58:12;;;;;;;12.00;7.65;;;;;;;26.67;49.76;99639.34;5096183;28;20124;-88
2021/06/18 01:00:40;;;;;;;9.57;8.55;;;;;;;26.64;50.32;99641.56;5095750;28;20058;-80
2021/06/18 01:03:08;;;;;;;9.90;8.60;;;;;;;26.59;50.56;99636.78;5096414;28;20142;-80
2021/06/18 01:05:36;;;;;;;12.32;8.40;;;;;;;26.56;50.30;99637.16;5095167;28;20056;-81
2021/06/18 01:08:15;;;;;;;10.02;7.35;;;;;;;26.47;50.33;99630.25;5094987;28;20492;-82
2021/06/18 01:10:55;;;;;;;11.15;7.88;;;;;;;26.45;50.74;99629.59;5094833;28;20052;-82
2021/06/18 01:13:37;;;;;;;11.50;8.25;;;;;;;26.40;50.38;99622.09;5095367;28;20411;-82
2021/06/18 01:16:16;;;;;;;12.13;8.23;;;;;;;26.36;50.72;99610.88;5095107;28;20052;-88
2021/06/18 01:19:33;;;;;;;12.98;9.40;;;;;;;26.32;50.45;99614.16;5054455;28;20041;-88
2021/06/18 01:22:04;;;;;;;10.23;8.25;;;;;;;26.32;50.57;99612.28;5054223;28;20053;-88
2021/06/18 01:24:49;;;;;;;12.50;8.95;;;;;;;26.21;50.50;99610.94;5054389;28;20053;-88
2021/06/18 01:28:04;;;;;;;12.93;9.38;;;;;;;26.15;50.83;99588.25;5052507;28;20131;-88
2021/06/18 01:30:33;;;;;;;16.00;9.15;;;;;;;26.17;50.74;99587.22;5054233;28;20059;-88
2021/06/18 01:33:06;;;;;;;11.95;9.40;;;;;;;26.08;51.24;99587.34;5054122;28;20059;-89
2021/06/18 01:39:15;;;;;;;12.82;9.18;;;;;;;26.00;51.16;99577.53;5095669;28;20047;-82
2021/06/18 01:41:47;;;;;;;15.48;10.35;;;;;;;25.96;51.67;99572.72;5094307;28;20048;-82
2021/06/18 01:44:15;;;;;;;14.98;9.27;;;;;;;25.92;51.32;99571.44;5094181;28;20055;-82
2021/06/18 01:46:43;;;;;;;15.07;9.10;;;;;;;25.85;51.76;99566.81;5094812;28;20135;-87
2021/06/18 01:49:12;;;;;;;13.20;9.48;;;;;;;25.83;51.96;99563.47;5094560;28;20404;-83
2021/06/18 01:51:41;;;;;;;12.18;9.77;;;;;;;25.81;51.95;99559.31;5094126;28;20054;-82
2021/06/18 01:54:09;;;;;;;12.95;9.55;;;;;;;25.79;52.39;99564.06;5094080;28;20063;-83
2021/06/18 01:56:45;;;;;;;16.35;10.20;;;;;;;25.71;52.51;99559.66;5093872;28;20074;-82
2021/06/18 01:59:13;;;;;;;12.95;9.52;;;;;;;25.71;52.36;99565.84;5094296;28;20567;-82
2021/06/18 02:01:44;;;;;;;13.13;9.77;;;;;;;25.70;52.79;99563.34;5093712;28;20052;-80
2021/06/18 02:04:13;;;;;;;11.60;9.45;;;;;;;25.68;52.61;99570.81;5093923;28;20059;-80
2021/06/18 02:06:42;;;;;;;14.30;9.50;;;;;;;25.65;52.68;99569.31;5094366;28;20048;-82
2021/06/18 02:09:14;;;;;;;11.45;8.77;;;;;;;25.61;52.97;99566.16;5093741;28;20056;-82
2021/06/18 02:11:42;;;;;;;12.88;10.20;;;;;;;25.58;52.54;99566.56;5093671;28;20056;-82
2021/06/18 02:14:16;;;;;;;12.05;10.23;;;;;;;25.56;53.23;99565.91;5093118;28;20074;-82
2021/06/18 02:16:55;;;;;;;13.73;10.68;;;;;;;25.52;53.27;99574.53;5093516;28;20056;-82
2021/06/18 02:19:22;;;;;;;15.38;10.52;;;;;;;25.51;53.15;99579.09;5094026;28;20160;-82
2021/06/18 02:22:07;;;;;;;12.55;10.73;;;;;;;25.44;52.84;99580.88;5093929;28;20059;-82
2021/06/18 02:24:35;;;;;;;11.43;10.23;;;;;;;25.48;53.14;99590.25;5093223;28;20056;-82
2021/06/18 02:27:04;;;;;;;13.02;11.02;;;;;;;25.46;53.36;99595.00;5093545;28;20052;-82
2021/06/18 02:29:32;;;;;;;16.00;11.63;;;;;;;25.44;53.69;99594.34;5093801;28;20480;-82
2021/06/18 02:32:03;;;;;;;14.02;11.95;;;;;;;25.44;53.51;99602.41;5093222;28;20056;-83
2021/06/18 02:34:30;;;;;;;12.63;9.35;;;;;;;25.42;53.36;99589.13;5093600;28;20087;-82
2021/06/18 02:36:59;;;;;;;15.07;11.82;;;;;;;25.40;53.42;99584.97;5093369;28;20117;-82
2021/06/18 02:39:29;;;;;;;13.90;11.80;;;;;;;25.38;53.89;99580.59;5093345;28;20058;-82
2021/06/18 02:41:55;;;;;;;13.60;12.05;;;;;;;25.41;53.81;99575.88;5093225;28;20052;-82
2021/06/18 02:44:22;;;;;;;13.43;11.77;;;;;;;25.40;53.85;99569.63;5076567;28;20062;-82
2021/06/18 02:47:09;;;;;;;14.45;12.07;;;;;;;25.34;53.85;99571.22;5093092;28;20051;-80
2021/06/18 02:50:04;;;;;;;15.45;12.07;;;;;;;25.33;53.50;99566.88;5093371;28;20419;-80
2021/06/18 02:53:16;;;;;;;16.52;12.02;;;;;;;25.30;53.28;99566.44;5092271;28;20401;-80
2021/06/18 02:56:27;;;;;;;15.35;12.52;;;;;;;25.26;53.34;99555.16;5074093;28;20056;-80
2021/06/18 02:59:07;;;;;;;17.80;12.13;;;;;;;25.22;53.96;99556.56;5054822;28;20055;-82
2021/06/18 03:01:40;;;;;;;15.00;12.05;;;;;;;25.19;54.13;99551.59;5055021;28;20052;-82
2021/06/18 03:11:41;;;;;;;16.25;12.98;;;;;;;24.97;54.24;99559.59;5092787;28;20101;-88
2021/06/18 03:14:16;;;;;;;16.23;12.57;;;;;;;24.94;54.63;99557.28;5092592;28;20052;-80
2021/06/18 03:16:46;;;;;;;15.93;13.70;;;;;;;24.93;54.39;99559.13;5092794;28;20457;-80
2021/06/18 03:19:16;;;;;;;19.52;14.23;;;;;;;24.90;54.79;99564.91;5092263;28;20051;-80
2021/06/18 03:21:46;;;;;;;16.95;13.23;;;;;;;24.89;55.00;99565.09;5092538;28;20052;-80
2021/06/18 03:24:15;;;;;;;14.98;13.40;;;;;;;24.88;54.79;99566.94;5092352;28;20063;-82
2021/06/18 03:26:46;;;;;;;16.65;13.02;;;;;;;24.86;55.37;99566.28;5092778;28;20506;-82
2021/06/18 03:29:14;;;;;;;13.20;11.75;;;;;;;24.88;55.03;99571.47;5092684;28;20054;-82
2021/06/18 03:31:49;;;;;;;13.43;11.52;;;;;;;24.85;55.23;99568.13;5092200;28;20052;-82
2021/06/18 03:34:16;;;;;;;14.25;10.90;;;;;;;24.89;54.52;99567.78;5091882;28;20064;-82
2021/06/18 03:36:46;;;;;;;15.70;11.40;;;;;;;24.89;55.57;99570.47;5092472;28;20450;-82
2021/06/18 03:39:13;;;;;;;15.27;12.35;;;;;;;24.91;55.01;99560.34;5092115;28;20063;-82
2021/06/18 03:41:40;;;;;;;16.60;13.15;;;;;;;24.91;54.89;99565.72;5092024;28;20055;-81
2021/06/18 03:47:45;;;;;;;14.05;12.15;;;;;;;24.91;55.61;99569.25;5093913;28;20378;-88
2021/06/18 03:50:16;;;;;;;14.60;10.63;;;;;;;24.94;55.10;99576.13;5092310;28;20135;-82
2021/06/18 03:52:44;;;;;;;11.80;10.55;;;;;;;24.95;55.06;99572.41;5092028;28;20083;-82
2021/06/18 03:55:15;;;;;;;13.93;12.48;;;;;;;24.93;55.37;99574.47;5092092;28;20396;-82
2021/06/18 03:57:49;;;;;;;18.90;13.30;;;;;;;24.93;55.71;99571.75;5091620;28;20048;-82
2021/06/18 04:00:43;;;;;;;17.20;13.60;;;;;;;24.90;55.49;99569.44;5092552;28;20054;-88
2021/06/18 04:03:12;;;;;;;17.92;13.85;;;;;;;24.95;55.56;99561.63;5072162;28;20052;-89
2021/06/18 04:05:42;;;;;;;16.48;13.43;;;;;;;24.93;55.42;99564.50;5071823;28;20107;-89
2021/06/18 04:08:10;;;;;;;16.25;13.38;;;;;;;24.93;55.62;99561.00;5071699;28;20048;-83
2021/06/18 04:10:46;;;;;;;17.45;13.35;;;;;;;24.87;55.52;99572.50;5071653;28;20063;-83
2021/06/18 04:13:13;;;;;;;17.15;13.45;;;;;;;24.86;55.81;99563.59;5072024;28;20056;-88
2021/06/18 04:15:40;;;;;;;14.98;13.40;;;;;;;24.83;55.73;99570.16;5079321;28;20055;-81
2021/06/18 04:18:12;;;;;;;18.15;13.50;;;;;;;24.77;56.04;99570.03;5093196;28;20499;-82
2021/06/18 04:20:39;;;;;;;16.95;13.75;;;;;;;24.76;56.22;99571.91;5091567;28;20067;-80
2021/06/18 04:23:06;;;;;;;17.88;14.07;;;;;;;24.74;56.04;99571.25;5091794;28;20059;-81
2021/06/18 04:25:42;;;;;;;14.82;13.32;;;;;;;24.70;56.43;99572.63;5091488;28;20058;-83
2021/06/18 04:28:09;;;;;;;15.05;13.48;;;;;;;24.72;56.48;99563.38;5091954;28;20377;-83
2021/06/18 04:30:35;;;;;;;15.65;13.95;;;;;;;24.70;56.50;99554.66;5090958;28;20056;-83
2021/06/18 04:33:11;;;;;;;16.15;13.40;;;;;;;24.68;56.83;99564.78;5091272;28;20044;-83
2021/06/18 04:35:38;;;;;;;14.75;13.05;;;;;;;24.71;56.80;99571.66;5091372;28;20061;-82
2021/06/18 04:38:05;;;;;;;22.10;13.27;;;;;;;24.72;56.46;99573.31;5091579;28;20044;-80
2021/06/18 04:40:36;;;;;;;15.65;12.88;;;;;;;24.72;57.06;99579.53;5091503;28;20143;-82
2021/06/18 04:43:04;;;;;;;17.13;13.23;;;;;;;24.75;56.79;99583.72;5091374;28;20058;-81
2021/06/18 04:45:31;;;;;;;13.32;11.93;;;;;;;24.78;56.40;99588.69;5091461;28;20054;-81
2021/06/18 04:48:01;;;;;;;18.98;13.25;;;;;;;24.82;56.74;99591.88;5091229;28;20044;-82
2021/06/18 04:50:31;;;;;;;17.02;13.00;;;;;;;24.87;56.68;99594.03;5091265;28;20052;-82
2021/06/18 04:53:00;;;;;;;15.07;12.68;;;;;;;24.93;56.20;99599.50;5091182;28;20056;-81
2021/06/18 04:55:31;;;;;;;17.70;11.85;;;;;;;24.96;56.85;99598.28;5091534;28;20060;-82
2021/06/18 04:57:58;;;;;;;16.73;12.25;;;;;;;25.01;56.66;99608.53;5091283;28;20409;-83
2021/06/18 05:00:28;;;;;;;13.93;12.18;;;;;;;25.04;56.61;99614.34;5091191;28;20052;-83
2021/06/18 05:02:55;;;;;;;15.75;11.23;;;;;;;25.10;56.60;99613.63;5091300;28;20094;-83
2021/06/18 05:05:22;;;;;;;15.75;12.73;;;;;;;25.17;56.73;99615.56;5091352;28;20052;-83
2021/06/18 05:07:53;;;;;;;15.80;12.55;;;;;;;25.20;56.64;99617.88;5091279;28;20058;-83
2021/06/18 05:10:21;;;;;;;14.43;12.68;;;;;;;25.26;56.12;99606.34;5091607;28;20480;-88
2021/06/18 05:12:52;;;;;;;15.25;13.13;;;;;;;25.31;56.53;99614.69;5091069;28;20058;-87
2021/06/18 05:15:19;;;;;;;14.43;12.45;;;;;;;25.37;55.80;99613.97;5092315;28;20062;-83
2021/06/18 05:17:48;;;;;;;15.65;13.07;;;;;;;25.42;55.73;99615.25;5094774;28;20040;-83
2021/06/18 05:20:15;;;;;;;15.65;12.27;;;;;;;25.48;55.49;99612.66;5094766;28;20044;-83
2021/06/18 05:22:43;;;;;;;18.42;12.70;;;;;;;25.53;55.73;99613.94;5095104;28;20052;-83
2021/06/18 05:25:13;;;;;;;15.75;13.90;;;;;;;25.53;56.11;99606.66;5094916;28;20048;-83
2021/06/18 05:27:40;;;;;;;14.13;11.88;;;;;;;25.57;55.45;99608.00;5094771;28;20066;-83
2021/06/18 05:30:09;;;;;;;17.98;12.70;;;;;;;25.59;55.58;99605.97;5094663;28;20048;-83
2021/06/18 05:32:48;;;;;;;14.73;10.98;;;;;;;25.62;55.99;99612.81;5033035;28;20564;-83
2021/06/18 05:35:16;;;;;;;14.80;13.13;;;;;;;25.68;55.38;99611.22;5016849;28;20421;-83
2021/06/18 05:37:42;;;;;;;15.45;12.50;;;;;;;25.70;55.36;99606.47;5016879;28;20053;-83
2021/06/18 05:40:10;;;;;;;15.35;12.77;;;;;;;25.73;55.51;99606.09;5016666;28;20569;-83
2021/06/18 05:42:37;;;;;;;14.02;12.25;;;;;;;25.77;55.04;99607.38;5017063;28;20049;-83
2021/06/18 05:45:05;;;;;;;16.25;12.43;;;;;;;25.79;55.26;99605.31;5016765;28;20053;-83
2021/06/18 05:47:33;;;;;;;14.27;12.77;;;;;;;25.80;55.20;99607.00;5016545;28;20405;-83
2021/06/18 05:50:04;;;;;;;15.32;13.27;;;;;;;25.83;55.25;99614.69;5023218;28;20056;-83
2021/06/18 05:52:31;;;;;;;13.95;12.23;;;;;;;25.86;55.32;99611.63;5090775;28;20048;-83
2021/06/18 05:55:02;;;;;;;14.13;11.32;;;;;;;25.87;55.39;99613.28;5093661;28;20056;-83
2021/06/18 05:57:29;;;;;;;17.15;13.52;;;;;;;25.94;54.92;99612.53;5094116;28;20059;-83
2021/06/18 05:59:55;;;;;;;16.13;12.13;;;;;;;25.98;54.78;99611.94;5094425;28;20056;-83
2021/06/18 06:02:24;;;;;;;16.08;12.63;;;;;;;25.99;54.77;99599.31;5095231;28;20052;-83
2021/06/18 06:04:51;;;;;;;13.88;12.27;;;;;;;26.01;54.84;99598.09;5094387;28;20060;-87
2021/06/18 06:07:18;;;;;;;15.07;13.02;;;;;;;26.03;55.07;99603.28;5093921;28;20131;-87
2021/06/18 06:09:49;;;;;;;14.63;11.70;;;;;;;26.04;54.96;99596.84;5094207;28;20373;-83
2021/06/18 06:12:16;;;;;;;15.45;12.05;;;;;;;26.08;55.00;99600.84;5093722;28;20060;-83
2021/06/18 06:14:50;;;;;;;17.48;12.77;;;;;;;26.11;55.64;99600.47;5093765;28;20051;-83
2021/06/18 06:17:17;;;;;;;13.65;12.25;;;;;;;26.17;55.28;99598.00;5094039;28;20415;-83
2021/06/18 06:19:44;;;;;;;11.50;10.07;;;;;;;26.20;54.89;99593.06;5093833;28;20396;-83
2021/06/18 06:22:10;;;;;;;12.48;10.77;;;;;;;26.24;54.68;99585.41;5093561;28;20062;-83
2021/06/18 06:24:40;;;;;;;12.30;10.73;;;;;;;26.28;54.87;99592.13;5093719;28;20056;-83
2021/06/18 06:27:07;;;;;;;13.68;10.93;;;;;;;26.32;54.71;99590.72;5092792;28;20396;-83
2021/06/18 06:29:35;;;;;;;12.65;10.88;;;;;;;26.34;54.54;99598.59;5094270;28;20154;-83
2021/06/18 06:32:02;;;;;;;11.73;9.60;;;;;;;26.37;54.47;99590.94;5094120;28;20055;-83
2021/06/18 06:34:29;;;;;;;14.50;11.10;;;;;;;26.40;54.27;99595.94;5093959;28;20511;-82
2021/06/18 06:36:59;;;;;;;24.00;10.43;;;;;;;26.43;54.43;99599.28;5094378;28;20467;-81
2021/06/18 06:39:26;;;;;;;13.30;10.00;;;;;;;26.48;53.97;99597.69;5093799;28;20058;-83
2021/06/18 06:41:56;;;;;;;16.60;10.60;;;;;;;26.50;54.31;99600.19;5093421;28;20044;-83
2021/06/18 06:44:23;;;;;;;11.52;10.05;;;;;;;26.55;54.38;99595.03;5093640;28;20052;-83
2021/06/18 06:46:52;;;;;;;12.10;9.50;;;;;;;26.59;54.20;99600.84;5093793;28;20052;-83
2021/06/18 06:49:24;;;;;;;14.18;11.63;;;;;;;26.62;54.39;99604.00;5093875;28;20052;-83
2021/06/18 06:51:52;;;;;;;13.43;11.20;;;;;;;26.69;53.81;99605.91;5093055;28;20058;-83
2021/06/18 06:54:19;;;;;;;12.88;10.02;;;;;;;26.73;53.33;99605.31;5095282;28;20055;-83
2021/06/18 06:56:47;;;;;;;17.27;9.85;;;;;;;26.77;53.39;99606.56;5093610;28;20054;-83
2021/06/18 06:59:14;;;;;;;14.30;11.05;;;;;;;26.83;53.60;99610.34;5093695;28;20052;-88
2021/06/18 07:01:41;;;;;;;12.13;10.35;;;;;;;26.87;53.69;99617.03;5094734;28;20048;-88
2021/06/18 07:04:50;;;;;;;12.30;9.63;;;;;;;26.87;53.61;99608.91;5093859;28;20557;-88
2021/06/18 07:07:17;;;;;;;11.82;8.93;;;;;;;26.99;53.48;99611.09;5093187;28;20051;-88
2021/06/18 07:09:45;;;;;;;13.68;8.55;;;;;;;27.03;53.32;99609.66;5093870;28;20044;-88
2021/06/18 07:12:11;;;;;;;14.82;9.43;;;;;;;27.10;53.64;99615.09;5094436;28;20054;-88
2021/06/18 07:14:41;;;;;;;12.23;9.88;;;;;;;27.16;53.59;99628.66;5093018;28;20066;-88
2021/06/18 07:17:25;;;;;;;13.65;9.88;;;;;;;27.19;53.56;99636.34;5093289;28;20048;-87
2021/06/18 07:19:54;;;;;;;12.20;10.15;;;;;;;27.31;53.43;99643.88;5093087;28;20051;-88
2021/06/18 07:22:22;;;;;;;14.10;10.18;;;;;;;27.37;53.44;99634.97;5093314;28;20051;-88
2021/06/18 07:24:53;;;;;;;12.20;10.82;;;;;;;27.44;52.91;99633.13;5093391;28;20066;-84
2021/06/18 07:27:26;;;;;;;12.55;11.05;;;;;;;27.51;52.87;99635.03;5092528;28;20062;-83
2021/06/18 07:29:53;;;;;;;;;;;;;;;27.55;52.81;99630.88;5093561;28;20048;-84
2021/06/18 07:32:23;;;;;;;15.00;10.48;;;;;;;27.67;52.77;99634.72;5093187;28;19920;-84
2021/06/18 07:34:50;;;;;;;15.18;11.55;;;;;;;27.74;52.81;99642.84;5093074;28;20712;-83
2021/06/18 07:37:17;;;;;;;17.33;12.48;;;;;;;27.78;52.60;99638.69;5092560;28;20052;-83
2021/06/18 07:39:47;;;;;;;13.07;11.48;;;;;;;27.83;52.44;99640.75;5092534;28;20048;-84
2021/06/18 07:42:27;;;;;;;12.98;10.95;;;;;;;27.89;52.37;99631.00;5056782;28;20094;-84
2021/06/18 07:44:54;;;;;;;16.27;11.50;;;;;;;27.94;52.50;99634.75;5055087;28;20514;-84
2021/06/18 07:47:21;;;;;;;17.02;13.98;;;;;;;28.02;52.70;99624.75;5054921;28;20051;-83
2021/06/18 07:49:47;;;;;;;17.42;13.55;;;;;;;28.10;52.51;99638.94;5044179;28;20053;-82
2021/06/18 07:52:14;;;;;;;16.40;13.88;;;;;;;28.18;52.28;99642.50;5034928;28;20136;-81
2021/06/18 07:55:19;;;;;;;15.25;13.15;;;;;;;28.18;52.08;99651.44;5044520;28;20416;-87
2021/06/18 07:57:47;;;;;;;16.05;12.18;;;;;;;28.29;51.86;99660.84;5054493;28;20078;-88
2021/06/18 08:00:17;;;;;;;12.88;11.57;;;;;;;28.32;51.67;99649.59;5065379;28;20066;-88
2021/06/18 08:02:44;;;;;;;13.65;11.60;;;;;;;28.38;51.33;99645.25;5092303;28;20052;-88
2021/06/18 08:05:14;;;;;;;13.45;12.10;;;;;;;28.43;51.93;99636.47;5091912;28;20058;-83
2021/06/18 08:07:43;;;;;;;18.00;13.10;;;;;;;28.51;51.70;99635.47;5091756;28;20139;-83
2021/06/18 08:10:13;;;;;;;15.52;11.77;;;;;;;28.56;51.44;99641.88;5091620;28;20101;-83
2021/06/18 08:12:46;;;;;;;16.20;12.57;;;;;;;28.63;51.59;99632.94;5071795;28;20052;-83
2021/06/18 08:15:13;;;;;;;12.65;10.30;;;;;;;28.71;51.73;99620.00;5071321;28;20055;-84
2021/06/18 08:17:40;;;;;;;16.08;11.15;;;;;;;28.80;51.48;99622.47;5071620;28;20127;-84
2021/06/18 08:20:09;;;;;;;12.07;10.68;;;;;;;28.86;51.59;99622.47;5071484;28;20053;-84
2021/06/18 08:22:36;;;;;;;13.07;11.77;;;;;;;28.94;50.87;99631.44;5071781;28;20413;-84
2021/06/18 08:25:12;;;;;;;17.70;11.27;;;;;;;28.99;51.23;99631.66;5071753;28;20052;-83
2021/06/18 08:27:39;;;;;;;16.52;13.13;;;;;;;29.11;50.86;99618.25;5083978;28;20428;-84
2021/06/18 08:30:09;;;;;;;17.17;14.27;;;;;;;29.17;51.06;99603.88;5092579;28;20062;-88
2021/06/18 08:32:48;;;;;;;17.75;14.82;;;;;;;29.26;50.76;99604.44;5092286;28;20059;-88
2021/06/18 08:35:15;;;;;;;15.38;13.65;;;;;;;29.33;51.09;99615.25;5092519;28;20542;-88
2021/06/18 08:37:45;;;;;;;17.45;14.90;;;;;;;29.38;51.28;99618.19;5092318;28;20094;-88
2021/06/18 08:40:13;;;;;;;15.07;13.48;;;;;;;29.46;50.86;99615.22;5091532;28;20127;-83
2021/06/18 08:42:42;;;;;;;15.82;13.70;;;;;;;29.53;50.57;99609.78;5091730;28;20052;-83
2021/06/18 08:45:09;;;;;;;15.02;12.68;;;;;;;29.61;50.33;99608.69;5091449;28;20395;-83
2021/06/18 08:47:37;;;;;;;20.40;14.20;;;;;;;29.69;50.73;99613.03;5092443;28;20068;-84
2021/06/18 08:50:05;;;;;;;14.98;13.35;;;;;;;29.79;50.41;99618.84;5092513;28;20044;-84
2021/06/18 08:52:32;;;;;;;14.25;12.75;;;;;;;29.88;50.34;99605.81;5095516;28;20044;-84
2021/06/18 08:55:02;;;;;;;14.07;12.63;;;;;;;29.97;50.17;99615.34;5096685;28;20052;-83
2021/06/18 08:57:29;;;;;;;16.38;13.57;;;;;;;30.04;50.11;99624.28;5095241;28;20052;-83
2021/06/18 08:59:55;;;;;;;14.30;12.93;;;;;;;30.12;50.02;99625.91;5094968;28;20054;-83
2021/06/18 09:02:24;;;;;;;16.50;14.52;;;;;;;30.17;50.21;99631.50;5095468;28;20399;-83
2021/06/18 09:05:08;;;;;;;16.75;13.85;;;;;;;30.21;50.45;99634.63;5095445;28;20081;-83
2021/06/18 09:08:04;;;;;;;16.05;12.48;;;;;;;30.27;50.18;99636.47;5095327;28;20458;-83
2021/06/18 09:10:51;;;;;;;13.65;12.25;;;;;;;30.38;49.83;99642.25;5095054;28;20052;-83
2021/06/18 09:13:22;;;;;;;14.60;12.63;;;;;;;30.45;49.31;99637.56;5094813;28;20056;-83
2021/06/18 09:15:54;;;;;;;17.77;13.50;;;;;;;30.52;49.53;99632.91;5095093;28;20055;-83
2021/06/18 09:18:41;;;;;;;13.45;12.05;;;;;;;30.56;49.70;99634.13;5094858;28;20052;-83
2021/06/18 09:21:10;;;;;;;13.32;11.68;;;;;;;30.66;49.56;99639.06;5094900;28;20515;-83
2021/06/18 09:23:44;;;;;;;14.38;12.20;;;;;;;30.73;49.63;99630.03;5094915;28;20056;-83
2021/06/18 09:26:34;;;;;;;16.45;13.10;;;;;;;30.77;48.46;99632.09;5017145;28;20046;-83
2021/06/18 09:29:11;;;;;;;15.23;12.35;;;;;;;30.87;48.55;99630.72;5016906;28;20041;-83
2021/06/18 09:31:56;;;;;;;13.75;12.13;;;;;;;30.93;48.33;99621.66;5017277;28;20653;-83
2021/06/18 09:37:20;;;;;;;;;;;;;;;31.07;49.35;99616.91;5033829;28;20063;-83
2021/06/18 09:40:16;;;;;;;12.02;10.00;;;;;;;31.17;48.58;99621.81;5016887;28;20007;-83
2021/06/18 09:43:22;;;;;;;11.68;10.45;;;;;;;31.23;49.48;99615.47;5033268;28;20664;-84
2021/06/18 09:45:49;;;;;;;11.90;10.40;;;;;;;31.36;49.04;99608.22;4974313;28;20063;-83
2021/06/18 09:48:22;;;;;;;11.18;10.07;;;;;;;31.42;48.72;99618.19;4958502;28;20046;-83
2021/06/18 09:51:00;;;;;;;13.45;10.95;;;;;;;31.50;48.90;99615.16;5025839;28;20052;-84
2021/06/18 09:53:29;;;;;;;14.13;10.38;;;;;;;31.61;48.37;99610.00;5094211;28;20052;-84
2021/06/18 09:56:07;;;;;;;15.02;10.15;;;;;;;31.66;48.00;99610.94;5095520;28;20460;-84
2021/06/18 09:58:42;;;;;;;10.38;9.13;;;;;;;31.74;47.21;99609.81;5094120;28;20048;-84
2021/06/18 10:01:18;;;;;;;10.02;7.95;;;;;;;31.81;46.83;99615.97;5094099;28;20066;-84
2021/06/18 10:04:06;;;;;;;10.15;8.35;;;;;;;31.87;47.64;99603.31;5094527;28;20165;-84
2021/06/18 10:06:35;;;;;;;11.65;9.23;;;;;;;31.99;46.81;99603.38;5093938;28;20484;-83
2021/06/18 10:09:05;;;;;;;11.45;9.13;;;;;;;32.06;47.44;99611.47;5092880;28;20048;-84
2021/06/18 10:11:33;;;;;;;11.27;8.98;;;;;;;32.16;47.86;99611.69;5093828;28;20052;-84
2021/06/18 10:14:01;;;;;;;10.23;9.23;;;;;;;32.26;48.18;99610.28;5093675;28;20052;-84
2021/06/18 10:16:29;;;;;;;9.88;8.77;;;;;;;32.34;47.83;99608.06;5093812;28;20055;-84
2021/06/18 10:19:00;;;;;;;9.60;8.60;;;;;;;32.44;47.00;99601.19;5093697;28;20055;-84
2021/06/18 10:21:34;;;;;;;10.95;9.73;;;;;;;32.53;46.52;99607.97;5094022;28;20503;-84
2021/06/18 10:24:05;;;;;;;11.65;8.75;;;;;;;32.65;46.99;99609.84;5088544;28;20054;-84
2021/06/18 10:26:32;;;;;;;10.35;8.32;;;;;;;32.76;46.43;99607.13;5093657;28;20401;-84
2021/06/18 10:29:01;;;;;;;9.52;8.52;;;;;;;32.88;46.01;99606.25;5093563;28;20040;-84
2021/06/18 10:31:36;;;;;;;10.45;9.10;;;;;;;32.98;44.97;99597.47;5093791;28;20052;-84
2021/06/18 10:34:06;;;;;;;11.88;9.27;;;;;;;33.09;44.89;99595.81;5093714;28;20056;-84
2021/06/18 10:36:33;;;;;;;11.23;9.38;;;;;;;33.20;44.96;99585.94;5093663;28;20399;-83
2021/06/18 10:39:14;;;;;;;9.40;8.00;;;;;;;33.28;45.14;99591.00;5093302;28;20090;-84
2021/06/18 10:41:46;;;;;;;11.57;8.05;;;;;;;33.41;45.30;99577.06;5094096;28;20056;-88
2021/06/18 10:44:37;;;;;;;10.93;8.38;;;;;;;33.59;45.82;99580.69;5094125;28;20044;-88
2021/06/18 10:47:25;;;;;;;11.27;8.50;;;;;;;33.86;45.12;99582.00;5071977;28;20048;-89
2021/06/18 10:49:53;;;;;;;11.52;8.50;;;;;;;34.18;45.94;99587.72;5094110;28;20052;-88
2021/06/18 10:52:34;;;;;;;11.65;8.02;;;;;;;34.53;45.55;99580.31;5093260;28;20465;-89
2021/06/18 10:55:01;;;;;;;11.05;8.57;;;;;;;34.98;44.18;99579.53;5094702;28;20048;-89
2021/06/18 10:57:31;;;;;;;13.18;7.88;;;;;;;35.42;43.23;99579.50;5093100;28;20052;-88
2021/06/18 11:00:10;;;;;;;11.07;8.80;;;;;;;35.93;42.64;99572.06;5092976;28;20048;-89
2021/06/18 11:02:41;;;;;;;11.20;8.40;;;;;;;36.45;41.67;99573.28;5093451;28;20161;-89
2021/06/18 11:05:17;;;;;;;8.88;7.57;;;;;;;36.92;42.13;99573.50;5092743;28;20044;-89
2021/06/18 11:12:01;;;;;;;10.05;7.68;;;;;;;37.86;40.63;99569.06;5094340;28;20056;-89
2021/06/18 11:14:37;;;;;;;10.23;7.07;;;;;;;38.29;37.74;99559.69;5092618;28;20079;-89
2021/06/18 11:17:51;;;;;;;7.45;5.82;;;;;;;38.59;38.39;99555.25;5093561;28;20043;-89
2021/06/18 11:20:33;;;;;;;7.82;7.05;;;;;;;38.89;37.14;99560.88;5093464;28;20377;-89
2021/06/18 11:23:10;;;;;;;7.63;6.82;;;;;;;39.12;35.85;99555.88;5093232;28;20490;-89
2021/06/18 11:25:37;;;;;;;11.02;6.63;;;;;;;39.30;35.20;99555.19;5093051;28;20134;-89
2021/06/18 11:28:19;;;;;;;8.73;6.38;;;;;;;39.33;36.30;99546.38;5092540;28;20067;-84
2021/06/18 11:30:50;;;;;;;10.43;6.82;;;;;;;39.46;35.13;99552.34;5092474;28;20047;-84
2021/06/18 11:33:36;;;;;;;8.70;6.25;;;;;;;39.51;36.14;99552.34;5092908;28;20048;-84
2021/06/18 11:36:03;;;;;;;6.30;5.70;;;;;;;39.69;35.87;99547.22;5092029;28;20040;-84
2021/06/18 11:38:30;;;;;;;7.40;5.70;;;;;;;39.85;35.00;99550.66;5093132;28;20052;-84
2021/06/18 11:41:01;;;;;;;10.02;6.57;;;;;;;40.00;34.08;99545.06;5093676;28;20472;-84
2021/06/18 11:43:30;;;;;;;6.78;5.15;;;;;;;40.22;33.88;99540.97;5092201;28;20056;-84
2021/06/18 11:46:06;;;;;;;8.90;5.90;;;;;;;40.42;34.21;99530.84;5092235;28;20492;-82
2021/06/18 11:48:34;;;;;;;6.63;5.75;;;;;;;40.64;33.13;99535.81;5091804;28;20047;-82
2021/06/18 11:51:06;;;;;;;7.00;5.38;;;;;;;40.74;32.21;99539.56;5092224;28;20067;-82
2021/06/18 11:53:40;;;;;;;5.63;5.13;;;;;;;40.86;32.23;99526.19;5092453;28;20062;-89
2021/06/18 11:56:08;;;;;;;6.53;4.72;;;;;;;41.03;33.02;99525.66;5092458;28;20051;-89
2021/06/18 11:58:36;;;;;;;5.90;5.18;;;;;;;41.21;32.81;99525.13;5092613;28;20139;-89
2021/06/18 12:04:18;;;;;;;8.95;5.13;;;;;;;41.55;30.44;99530.41;5093648;28;20477;-90
2021/06/18 12:06:45;;;;;;;5.78;5.13;;;;;;;41.57;30.80;99534.81;5093808;28;20048;-90
2021/06/18 12:09:36;;;;;;;7.28;4.93;;;;;;;41.43;31.85;99530.06;5092547;28;20408;-90